Time;durP1;ratioP1;P1;durP2;ratioP2;P2;SDS_P1;SDS_P2;PMS_P1;PMS_P2;Temp;Humidity;BMP_temperature;BMP_pressure;BME280_temperature;BME280_humidity;BME280_pressure;Samples;Min_cycle;Max_cycle;Signal;HPM_P1;HPM_P2
2022/07/30 00:01:35;;;;;;;2.22;1.92;;;;;;;;;;5073589;28;20692;-82
2022/07/30 00:04:03;;;;;;;1.92;1.60;;;;;;;;;;5073895;28;20312;-82
2022/07/30 00:06:31;;;;;;;2.03;1.92;;;;;;;;;;5073251;28;20641;-82
2022/07/30 00:08:58;;;;;;;1.98;1.85;;;;;;;;;;5073873;28;20228;-82
2022/07/30 00:11:26;;;;;;;1.85;1.75;;;;;;;;;;5073747;28;20232;-82
2022/07/30 00:13:53;;;;;;;1.75;1.65;;;;;;;;;;5073346;28;20235;-82
2022/07/30 00:16:21;;;;;;;2.28;2.13;;;;;;;;;;5073197;28;20288;-82
2022/07/30 00:18:50;;;;;;;2.53;2.42;;;;;;;;;;5073489;28;20271;-82
2022/07/30 00:21:17;;;;;;;1.95;1.85;;;;;;;;;;5073614;28;20287;-82
2022/07/30 00:23:45;;;;;;;1.80;1.70;;;;;;;;;;5073001;28;20714;-82
2022/07/30 00:26:12;;;;;;;2.58;2.38;;;;;;;;;;5073106;28;20215;-83
2022/07/30 00:28:40;;;;;;;2.25;2.05;;;;;;;;;;5096015;23;20605;-77
2022/07/30 00:31:07;;;;;;;2.65;2.45;;;;;;;;;;5084598;28;20264;-76
2022/07/30 00:33:35;;;;;;;2.60;2.40;;;;;;;;;;5079360;28;20220;-77
2022/07/30 00:36:05;;;;;;;2.80;2.50;;;;;;;;;;5072857;28;20288;-77
2022/07/30 00:38:32;;;;;;;2.95;2.75;;;;;;;;;;5070060;28;20229;-77
2022/07/30 00:41:00;;;;;;;2.78;2.50;;;;;;;;;;5052570;28;20292;-77
2022/07/30 00:43:27;;;;;;;2.60;2.40;;;;;;;;;;5052663;28;20721;-78
2022/07/30 00:45:55;;;;;;;3.13;2.92;;;;;;;;;;5052849;28;20296;-77
2022/07/30 00:48:22;;;;;;;1.92;1.83;;;;;;;;;;5052503;28;20229;-77
2022/07/30 00:50:50;;;;;;;2.10;1.63;;;;;;;;;;5052818;28;20288;-77
2022/07/30 00:53:19;;;;;;;2.20;2.00;;;;;;;;;;5052748;28;20206;-77
2022/07/30 00:55:46;;;;;;;2.75;2.33;;;;;;;;;;5052568;28;20886;-78
2022/07/30 00:58:14;;;;;;;2.95;2.75;;;;;;;;;;5052570;28;20306;-77
2022/07/30 01:00:41;;;;;;;3.03;2.83;;;;;;;;;;5064662;28;20215;-77
2022/07/30 01:03:09;;;;;;;2.70;2.28;;;;;;;;;;5072288;28;20274;-77
2022/07/30 01:05:36;;;;;;;2.63;2.42;;;;;;;;;;5072200;28;20308;-78
2022/07/30 01:08:04;;;;;;;1.90;1.80;;;;;;;;;;5072178;28;20628;-78
2022/07/30 01:10:34;;;;;;;1.80;1.70;;;;;;;;;;5072598;28;20225;-77
2022/07/30 01:13:02;;;;;;;1.85;1.75;;;;;;;;;;5072170;28;20266;-77
2022/07/30 01:15:30;;;;;;;1.85;1.70;;;;;;;;;;5072511;28;20630;-78
2022/07/30 01:18:02;;;;;;;1.77;1.67;;;;;;;;;;5072282;28;20205;-77
2022/07/30 01:20:31;;;;;;;2.67;1.83;;;;;;;;;;5072612;28;20228;-77
2022/07/30 01:23:07;;;;;;;2.13;2.03;;;;;;;;;;5072637;28;20197;-77
2022/07/30 01:25:54;;;;;;;2.28;1.75;;;;;;;;;;5072271;28;20311;-77
2022/07/30 01:28:26;;;;;;;1.70;1.60;;;;;;;;;;5072251;28;20234;-77
2022/07/30 01:30:55;;;;;;;2.00;1.90;;;;;;;;;;5072747;28;20247;-78
2022/07/30 01:33:24;;;;;;;1.80;1.70;;;;;;;;;;5072073;28;20640;-77
2022/07/30 01:35:52;;;;;;;1.83;1.73;;;;;;;;;;5071997;28;20289;-76
2022/07/30 01:38:22;;;;;;;1.80;1.70;;;;;;;;;;5072125;28;20566;-76
2022/07/30 01:40:53;;;;;;;2.17;1.98;;;;;;;;;;5072231;28;20578;-77
2022/07/30 01:43:23;;;;;;;2.25;2.00;;;;;;;;;;5072189;28;20291;-77
2022/07/30 01:45:51;;;;;;;2.10;2.00;;;;;;;;;;5072053;28;20225;-77
2022/07/30 01:48:22;;;;;;;1.88;1.77;;;;;;;;;;5071770;28;20603;-77
2022/07/30 01:50:53;;;;;;;2.20;2.03;;;;;;;;;;5072041;28;20225;-77
2022/07/30 01:53:24;;;;;;;2.42;2.08;;;;;;;;;;5072059;28;20287;-77
2022/07/30 01:55:54;;;;;;;3.30;2.67;;;;;;;;;;5072118;28;20247;-77
2022/07/30 01:58:25;;;;;;;2.58;2.38;;;;;;;;;;5071761;28;20193;-78
2022/07/30 02:00:52;;;;;;;2.90;2.70;;;;;;;;;;5071940;28;20204;-76
2022/07/30 02:03:21;;;;;;;3.03;2.65;;;;;;;;;;5071609;28;20812;-77
2022/07/30 02:05:52;;;;;;;3.00;2.80;;;;;;;;;;5072060;28;20307;-77
2022/07/30 02:08:34;;;;;;;2.22;2.10;;;;;;;;;;5071782;28;20634;-78
2022/07/30 02:11:08;;;;;;;2.78;2.58;;;;;;;;;;5072343;28;20264;-77
2022/07/30 02:13:44;;;;;;;3.50;3.20;;;;;;;;;;5071807;28;20296;-77
2022/07/30 02:16:16;;;;;;;3.08;2.80;;;;;;;;;;5071880;28;20207;-77
2022/07/30 02:18:55;;;;;;;2.92;2.72;;;;;;;;;;5071613;28;20223;-78
2022/07/30 02:21:24;;;;;;;2.67;2.47;;;;;;;;;;5071937;28;20209;-75
2022/07/30 02:23:53;;;;;;;3.58;2.75;;;;;;;;;;5072552;28;20304;-78
2022/07/30 02:26:24;;;;;;;2.70;2.50;;;;;;;;;;5072224;28;20311;-76
2022/07/30 02:28:57;;;;;;;2.47;2.28;;;;;;;;;;5071748;28;20345;-77
2022/07/30 02:31:27;;;;;;;2.88;2.67;;;;;;;;;;5071574;28;20201;-77
2022/07/30 02:34:01;;;;;;;2.35;2.17;;;;;;;;;;5071826;28;20291;-77
2022/07/30 02:36:30;;;;;;;2.70;2.22;;;;;;;;;;5071267;28;20292;-77
2022/07/30 02:38:59;;;;;;;2.88;2.28;;;;;;;;;;5071623;28;20243;-77
2022/07/30 02:41:29;;;;;;;2.20;2.00;;;;;;;;;;5071851;28;20288;-77
2022/07/30 02:43:58;;;;;;;2.78;2.58;;;;;;;;;;5071832;28;20288;-77
2022/07/30 02:46:26;;;;;;;1.23;1.23;;;;;;;;;;5073212;28;20287;-77
2022/07/30 02:48:55;;;;;;;1.60;1.50;;;;;;;;;;5075612;28;20303;-77
2022/07/30 02:51:23;;;;;;;1.50;1.40;;;;;;;;;;5075080;28;20283;-77
2022/07/30 02:53:51;;;;;;;1.73;1.50;;;;;;;;;;5074441;28;20292;-77
2022/07/30 02:56:19;;;;;;;1.98;1.73;;;;;;;;;;5074888;28;20209;-77
2022/07/30 02:58:50;;;;;;;1.33;1.23;;;;;;;;;;5074875;28;20248;-77
2022/07/30 03:01:19;;;;;;;1.50;1.40;;;;;;;;;;5074972;28;20254;-77
2022/07/30 03:03:47;;;;;;;1.90;1.80;;;;;;;;;;5074560;28;20641;-77
2022/07/30 03:06:15;;;;;;;1.90;1.80;;;;;;;;;;5074371;28;20295;-76
2022/07/30 03:08:44;;;;;;;3.22;2.28;;;;;;;;;;5074740;28;20213;-77
2022/07/30 03:11:13;;;;;;;2.13;2.03;;;;;;;;;;5074676;28;20731;-77
2022/07/30 03:13:41;;;;;;;2.55;2.30;;;;;;;;;;5074846;28;20662;-77
2022/07/30 03:16:11;;;;;;;2.10;2.00;;;;;;;;;;5074263;28;20288;-77
2022/07/30 03:18:39;;;;;;;2.15;2.00;;;;;;;;;;5073850;28;20666;-78
2022/07/30 03:21:09;;;;;;;2.35;2.10;;;;;;;;;;5074424;28;20748;-77
2022/07/30 03:23:38;;;;;;;1.90;1.80;;;;;;;;;;5074436;28;20209;-77
2022/07/30 03:26:07;;;;;;;1.80;1.70;;;;;;;;;;5074369;28;20316;-77
2022/07/30 03:28:37;;;;;;;2.05;1.95;;;;;;;;;;5074001;28;20231;-77
2022/07/30 03:31:06;;;;;;;2.05;1.95;;;;;;;;;;5074461;28;20236;-77
2022/07/30 03:33:36;;;;;;;2.05;1.95;;;;;;;;;;5074513;28;20205;-77
2022/07/30 03:36:04;;;;;;;3.22;1.77;;;;;;;;;;5074387;28;20200;-77
2022/07/30 03:38:32;;;;;;;2.83;2.10;;;;;;;;;;5074207;28;20310;-77
2022/07/30 03:41:00;;;;;;;1.98;1.88;;;;;;;;;;5073823;28;20291;-77
2022/07/30 03:43:28;;;;;;;3.10;2.17;;;;;;;;;;5074406;28;20212;-77
2022/07/30 03:45:55;;;;;;;2.58;2.38;;;;;;;;;;5074015;28;20312;-77
2022/07/30 03:48:23;;;;;;;2.80;2.60;;;;;;;;;;5073665;28;20699;-75
2022/07/30 03:50:52;;;;;;;2.40;2.20;;;;;;;;;;5074113;28;20209;-77
2022/07/30 03:53:22;;;;;;;2.58;2.03;;;;;;;;;;5074082;28;20276;-77
2022/07/30 03:55:50;;;;;;;2.55;2.35;;;;;;;;;;5073910;28;20259;-77
2022/07/30 03:58:18;;;;;;;5.45;2.20;;;;;;;;;;5073419;28;20576;-77
2022/07/30 04:00:48;;;;;;;2.13;2.03;;;;;;;;;;5073598;28;20291;-77
2022/07/30 04:03:25;;;;;;;1.70;1.60;;;;;;;;;;5073848;28;20203;-77
2022/07/30 04:05:54;;;;;;;2.05;1.50;;;;;;;;;;5073585;28;20304;-77
2022/07/30 04:08:21;;;;;;;1.45;1.35;;;;;;;;;;5073625;28;20201;-78
2022/07/30 04:10:50;;;;;;;1.63;1.52;;;;;;;;;;5073482;28;20288;-78
2022/07/30 04:13:18;;;;;;;1.50;1.40;;;;;;;;;;5073993;28;20201;-77
2022/07/30 04:15:54;;;;;;;1.70;1.60;;;;;;;;;;5073441;28;20288;-77
2022/07/30 04:18:23;;;;;;;1.52;1.42;;;;;;;;;;5073462;28;20235;-77
2022/07/30 04:20:53;;;;;;;2.10;1.88;;;;;;;;;;5073217;28;20218;-77
2022/07/30 04:23:21;;;;;;;2.17;1.98;;;;;;;;;;5073808;28;20232;-77
2022/07/30 04:25:49;;;;;;;2.60;2.40;;;;;;;;;;5073471;28;20307;-77
2022/07/30 04:28:17;;;;;;;5.03;2.30;;;;;;;;;;5072947;28;20759;-78
2022/07/30 04:30:44;;;;;;;2.22;2.13;;;;;;;;;;5073183;28;20649;-77
2022/07/30 04:33:12;;;;;;;2.10;1.92;;;;;;;;;;5072712;28;20296;-77
2022/07/30 04:35:40;;;;;;;2.83;2.10;;;;;;;;;;5073369;28;20703;-77
2022/07/30 04:38:09;;;;;;;1.90;1.80;;;;;;;;;;5072676;28;20645;-77
2022/07/30 04:40:37;;;;;;;2.10;1.90;;;;;;;;;;5072945;28;20768;-77
2022/07/30 04:43:04;;;;;;;1.42;1.33;;;;;;;;;;5073320;28;20243;-76
2022/07/30 04:45:31;;;;;;;4.55;2.92;;;;;;;;;;5073088;28;20204;-78
2022/07/30 04:47:59;;;;;;;2.00;1.90;;;;;;;;;;5072404;28;20312;-77
2022/07/30 04:50:29;;;;;;;1.70;1.60;;;;;;;;;;5072431;28;20312;-77
2022/07/30 04:52:56;;;;;;;1.63;1.52;;;;;;;;;;5072831;28;20250;-76
2022/07/30 04:55:26;;;;;;;2.05;1.95;;;;;;;;;;5072383;28;20215;-77
2022/07/30 04:57:54;;;;;;;2.40;2.20;;;;;;;;;;5072812;28;20661;-77
2022/07/30 05:00:22;;;;;;;2.40;2.28;;;;;;;;;;5072625;28;20271;-78
2022/07/30 05:02:50;;;;;;;3.15;2.95;;;;;;;;;;5073031;28;20285;-77
2022/07/30 05:05:18;;;;;;;2.28;2.10;;;;;;;;;;5072623;28;20251;-77
2022/07/30 05:07:46;;;;;;;2.00;1.90;;;;;;;;;;5072059;28;20307;-77
2022/07/30 05:10:14;;;;;;;1.98;1.88;;;;;;;;;;5071761;28;20312;-77
2022/07/30 05:12:43;;;;;;;2.30;2.17;;;;;;;;;;5074585;28;20639;-81
2022/07/30 05:15:12;;;;;;;2.35;2.15;;;;;;;;;;5075149;28;20288;-82
2022/07/30 05:17:40;;;;;;;2.20;2.03;;;;;;;;;;5074897;28;20206;-80
2022/07/30 05:20:09;;;;;;;3.65;2.53;;;;;;;;;;5074847;28;20668;-82
2022/07/30 05:22:37;;;;;;;1.90;1.80;;;;;;;;;;5074420;28;20638;-80
2022/07/30 05:25:05;;;;;;;1.90;1.80;;;;;;;;;;5073910;28;20201;-81
2022/07/30 05:27:33;;;;;;;2.10;2.00;;;;;;;;;;5074458;28;20308;-82
2022/07/30 05:30:02;;;;;;;1.63;1.52;;;;;;;;;;5074148;28;20347;-81
2022/07/30 05:32:29;;;;;;;1.75;1.65;;;;;;;;;;5075622;28;20232;-81
2022/07/30 05:34:58;;;;;;;1.98;1.77;;;;;;;;;;5074355;28;20293;-82
2022/07/30 05:37:25;;;;;;;1.88;1.77;;;;;;;;;;5074440;28;20197;-82
2022/07/30 05:39:53;;;;;;;2.63;2.42;;;;;;;;;;5074147;28;20220;-81
2022/07/30 05:42:20;;;;;;;3.25;2.30;;;;;;;;;;5074438;28;20698;-81
2022/07/30 05:44:48;;;;;;;1.85;1.75;;;;;;;;;;5074269;28;20293;-80
2022/07/30 05:47:19;;;;;;;1.60;1.50;;;;;;;;;;5073524;28;20311;-81
2022/07/30 05:49:47;;;;;;;1.33;1.23;;;;;;;;;;5075252;28;20224;-81
2022/07/30 05:52:15;;;;;;;1.60;1.50;;;;;;;;;;5074617;28;20673;-82
2022/07/30 05:54:43;;;;;;;1.67;1.58;;;;;;;;;;5073556;28;20293;-81
2022/07/30 05:57:11;;;;;;;1.75;1.65;;;;;;;;;;5073179;28;20235;-82
2022/07/30 05:59:38;;;;;;;1.80;1.70;;;;;;;;;;5074267;28;20267;-80
2022/07/30 06:02:06;;;;;;;1.98;1.88;;;;;;;;;;5073670;28;20288;-81
2022/07/30 06:04:35;;;;;;;1.70;1.60;;;;;;;;;;5073516;28;20201;-81
2022/07/30 06:07:02;;;;;;;1.90;1.80;;;;;;;;;;5072988;28;20667;-81
2022/07/30 06:09:30;;;;;;;1.48;1.38;;;;;;;;;;5073418;28;20261;-80
2022/07/30 06:11:57;;;;;;;1.65;1.55;;;;;;;;;;5073497;28;20232;-82
2022/07/30 06:14:25;;;;;;;2.78;2.58;;;;;;;;;;5073158;28;20648;-82
2022/07/30 06:16:52;;;;;;;2.53;2.33;;;;;;;;;;5073145;28;20246;-81
2022/07/30 06:19:20;;;;;;;2.05;1.95;;;;;;;;;;5073795;28;20674;-81
2022/07/30 06:21:49;;;;;;;3.28;2.38;;;;;;;;;;5076074;28;20243;-81
2022/07/30 06:24:16;;;;;;;3.25;2.95;;;;;;;;;;5076489;28;20643;-81
2022/07/30 06:26:44;;;;;;;2.38;2.28;;;;;;;;;;5076001;28;20200;-82
2022/07/30 06:29:12;;;;;;;2.10;2.00;;;;;;;;;;5083537;22;20640;-85
2022/07/30 06:31:40;;;;;;;2.28;2.10;;;;;;;;;;5073204;28;20250;-85
2022/07/30 06:34:08;;;;;;;3.65;3.30;;;;;;;;;;5069719;28;20198;-85
2022/07/30 06:36:36;;;;;;;2.40;2.20;;;;;;;;;;5059532;28;20225;-85
2022/07/30 06:39:05;;;;;;;2.88;2.67;;;;;;;;;;5060162;28;20232;-85
2022/07/30 06:41:32;;;;;;;2.60;2.40;;;;;;;;;;5059120;28;20210;-85
2022/07/30 06:44:00;;;;;;;3.17;2.83;;;;;;;;;;5082584;22;20275;-80
2022/07/30 06:46:27;;;;;;;2.40;2.15;;;;;;;;;;5057383;28;20209;-80
2022/07/30 06:48:55;;;;;;;2.67;2.47;;;;;;;;;;5056620;28;20662;-79
2022/07/30 06:51:22;;;;;;;3.08;2.85;;;;;;;;;;5056591;28;20256;-81
2022/07/30 06:53:50;;;;;;;3.22;3.03;;;;;;;;;;5056726;28;20202;-80
2022/07/30 06:56:19;;;;;;;2.40;2.30;;;;;;;;;;5056113;28;20210;-80
2022/07/30 06:58:46;;;;;;;1.90;1.80;;;;;;;;;;5056224;28;20761;-79
2022/07/30 07:01:14;;;;;;;3.53;3.17;;;;;;;;;;5055998;28;20257;-79
2022/07/30 07:03:41;;;;;;;2.80;2.60;;;;;;;;;;5056542;28;20259;-79
2022/07/30 07:06:09;;;;;;;2.47;2.28;;;;;;;;;;5055805;28;20285;-80
2022/07/30 07:08:38;;;;;;;2.67;2.33;;;;;;;;;;5056246;28;20748;-79
2022/07/30 07:11:05;;;;;;;3.28;2.70;;;;;;;;;;5056685;28;20221;-81
2022/07/30 07:13:34;;;;;;;2.40;2.30;;;;;;;;;;5056587;28;20201;-80
2022/07/30 07:16:02;;;;;;;2.80;2.70;;;;;;;;;;5057082;28;20694;-80
2022/07/30 07:18:29;;;;;;;3.13;2.88;;;;;;;;;;5056388;28;20266;-79
2022/07/30 07:20:57;;;;;;;2.92;2.72;;;;;;;;;;5056096;28;20732;-80
2022/07/30 07:23:25;;;;;;;2.35;2.25;;;;;;;;;;5056374;28;20225;-80
2022/07/30 07:25:52;;;;;;;4.05;2.75;;;;;;;;;;5056736;28;20201;-80
2022/07/30 07:28:20;;;;;;;2.90;2.70;;;;;;;;;;5056154;28;20257;-81
2022/07/30 07:30:49;;;;;;;5.32;2.15;;;;;;;;;;5056307;28;20930;-81
2022/07/30 07:33:16;;;;;;;3.20;2.90;;;;;;;;;;5055021;28;20697;-81
2022/07/30 07:35:44;;;;;;;2.30;2.10;;;;;;;;;;5056005;28;20760;-80
2022/07/30 07:38:11;;;;;;;2.25;2.08;;;;;;;;;;5055243;28;20200;-80
2022/07/30 07:40:39;;;;;;;2.08;1.98;;;;;;;;;;5055240;28;20257;-80
2022/07/30 07:43:06;;;;;;;2.65;2.45;;;;;;;;;;5054998;28;20292;-79
2022/07/30 07:45:34;;;;;;;3.35;3.03;;;;;;;;;;5054422;28;20227;-79
2022/07/30 07:48:03;;;;;;;3.60;3.30;;;;;;;;;;5053388;28;20293;-80
2022/07/30 07:50:31;;;;;;;2.85;2.65;;;;;;;;;;5054740;28;20592;-80
2022/07/30 07:52:58;;;;;;;2.97;2.75;;;;;;;;;;5054191;28;20328;-79
2022/07/30 07:55:26;;;;;;;2.63;2.42;;;;;;;;;;5054649;28;20764;-80
2022/07/30 07:57:54;;;;;;;2.78;2.58;;;;;;;;;;5054862;28;20293;-82
2022/07/30 08:00:22;;;;;;;3.40;3.10;;;;;;;;;;5056183;28;20253;-79
2022/07/30 08:02:49;;;;;;;2.85;2.60;;;;;;;;;;5060720;28;20241;-78
2022/07/30 08:05:18;;;;;;;2.03;1.92;;;;;;;;;;5056499;28;20264;-78
2022/07/30 08:07:46;;;;;;;2.33;2.22;;;;;;;;;;5056394;28;20197;-78
2022/07/30 08:10:14;;;;;;;2.20;2.10;;;;;;;;;;5056059;28;20305;-79
2022/07/30 08:12:42;;;;;;;2.10;2.00;;;;;;;;;;5056224;28;20218;-80
2022/07/30 08:15:10;;;;;;;2.70;2.50;;;;;;;;;;5055748;28;20717;-79
2022/07/30 08:17:41;;;;;;;2.85;2.65;;;;;;;;;;5055369;28;20204;-79
2022/07/30 08:20:10;;;;;;;6.45;2.53;;;;;;;;;;5055225;28;20229;-79
2022/07/30 08:22:39;;;;;;;3.35;3.05;;;;;;;;;;5055761;28;20580;-79
2022/07/30 08:25:08;;;;;;;3.65;2.60;;;;;;;;;;5054505;28;20202;-78
2022/07/30 08:27:36;;;;;;;2.40;2.28;;;;;;;;;;5055037;28;20237;-79
2022/07/30 08:30:05;;;;;;;2.30;2.17;;;;;;;;;;5053700;28;20257;-78
2022/07/30 08:32:33;;;;;;;3.67;2.80;;;;;;;;;;5063253;28;20208;-78
2022/07/30 08:35:00;;;;;;;4.13;3.38;;;;;;;;;;5071836;28;20217;-79
2022/07/30 08:37:28;;;;;;;2.35;1.92;;;;;;;;;;5075815;28;20655;-79
2022/07/30 08:39:57;;;;;;;2.70;2.60;;;;;;;;;;5074895;28;20223;-79
2022/07/30 08:42:25;;;;;;;2.50;2.30;;;;;;;;;;5075938;28;20236;-80
2022/07/30 08:44:54;;;;;;;3.00;2.80;;;;;;;;;;5075298;28;20212;-79
2022/07/30 08:47:28;;;;;;;2.42;2.10;;;;;;;;;;5075354;28;20197;-78
2022/07/30 08:50:00;;;;;;;3.58;2.92;;;;;;;;;;5074939;28;20316;-78
2022/07/30 08:52:28;;;;;;;3.05;2.85;;;;;;;;;;5075102;28;20197;-79
2022/07/30 08:54:56;;;;;;;2.75;2.55;;;;;;;;;;5075367;28;20229;-80
2022/07/30 08:57:24;;;;;;;2.88;2.67;;;;;;;;;;5074970;28;20732;-80
2022/07/30 08:59:52;;;;;;;2.60;2.40;;;;;;;;;;5074860;28;20256;-79
2022/07/30 09:02:19;;;;;;;2.47;2.28;;;;;;;;;;5059731;28;20236;-79
2022/07/30 09:04:47;;;;;;;2.90;2.70;;;;;;;;;;5054811;28;20639;-79
2022/07/30 09:07:14;;;;;;;2.80;2.60;;;;;;;;;;5054293;28;20586;-79
2022/07/30 09:09:42;;;;;;;2.22;2.13;;;;;;;;;;5053961;28;20249;-79
2022/07/30 09:12:36;;;;;;;1.98;1.88;;;;;;;;;;5054554;28;20233;-79
2022/07/30 09:15:10;;;;;;;3.20;3.00;;;;;;;;;;5054469;28;20621;-79
2022/07/30 09:17:56;;;;;;;2.55;2.33;;;;;;;;;;5054070;28;20204;-79
2022/07/30 09:20:26;;;;;;;4.53;3.25;;;;;;;;;;5054233;28;20221;-80
2022/07/30 09:22:56;;;;;;;2.88;2.67;;;;;;;;;;5054519;28;20284;-79
2022/07/30 09:25:35;;;;;;;3.55;3.03;;;;;;;;;;5054619;28;20292;-79
2022/07/30 09:28:05;;;;;;;4.03;2.63;;;;;;;;;;5054078;28;20205;-78
2022/07/30 09:30:48;;;;;;;3.53;3.22;;;;;;;;;;5054322;28;20309;-79
2022/07/30 09:33:17;;;;;;;3.55;3.25;;;;;;;;;;5054522;28;20288;-79
2022/07/30 09:35:45;;;;;;;3.30;2.42;;;;;;;;;;5054048;28;20209;-80
2022/07/30 09:38:13;;;;;;;3.75;2.67;;;;;;;;;;5053374;28;20281;-79
2022/07/30 09:40:41;;;;;;;4.13;3.15;;;;;;;;;;5054122;28;20717;-79
2022/07/30 09:43:11;;;;;;;2.65;2.30;;;;;;;;;;5052952;28;20245;-79
2022/07/30 09:45:51;;;;;;;5.10;3.10;;;;;;;;;;5054063;28;20233;-81
2022/07/30 09:48:22;;;;;;;3.78;3.47;;;;;;;;;;5053888;28;20636;-79
2022/07/30 09:50:51;;;;;;;3.33;3.03;;;;;;;;;;5053409;28;20232;-78
2022/07/30 09:53:18;;;;;;;2.20;2.10;;;;;;;;;;5053536;28;20632;-82
2022/07/30 09:55:46;;;;;;;2.92;2.70;;;;;;;;;;5053299;28;20288;-80
2022/07/30 09:58:15;;;;;;;2.72;2.53;;;;;;;;;;5053340;28;20232;-79
2022/07/30 10:00:43;;;;;;;3.45;2.78;;;;;;;;;;5052990;28;20588;-81
2022/07/30 10:03:19;;;;;;;3.33;3.13;;;;;;;;;;5053425;28;20233;-79
2022/07/30 10:05:55;;;;;;;2.83;2.60;;;;;;;;;;5053527;28;20236;-79
2022/07/30 10:08:40;;;;;;;3.08;2.85;;;;;;;;;;5053168;28;20240;-79
2022/07/30 10:11:12;;;;;;;3.63;3.33;;;;;;;;;;5052877;28;20689;-80
2022/07/30 10:13:42;;;;;;;2.78;2.55;;;;;;;;;;5053118;28;20205;-78
2022/07/30 10:16:10;;;;;;;2.55;2.45;;;;;;;;;;5053261;28;20242;-79
2022/07/30 10:18:38;;;;;;;2.85;2.65;;;;;;;;;;5052579;28;20233;-79
2022/07/30 10:21:06;;;;;;;2.97;2.78;;;;;;;;;;5053028;28;20301;-79
2022/07/30 10:23:34;;;;;;;2.80;2.33;;;;;;;;;;5054416;28;20216;-79
2022/07/30 10:26:03;;;;;;;2.85;2.58;;;;;;;;;;5052926;28;20206;-79
2022/07/30 10:28:31;;;;;;;3.40;2.92;;;;;;;;;;5053310;28;20256;-79
2022/07/30 10:31:01;;;;;;;2.38;2.10;;;;;;;;;;5052412;28;20329;-79
2022/07/30 10:33:30;;;;;;;2.55;1.80;;;;;;;;;;5052980;28;20293;-78
2022/07/30 10:35:58;;;;;;;3.13;2.90;;;;;;;;;;5052375;28;20671;-78
2022/07/30 10:38:32;;;;;;;2.90;2.70;;;;;;;;;;5052330;28;20284;-80
2022/07/30 10:41:05;;;;;;;3.28;2.92;;;;;;;;;;5052681;28;20698;-79
2022/07/30 10:44:20;;;;;;;2.60;2.40;;;;;;;;;;5052479;28;20297;-77
2022/07/30 10:47:00;;;;;;;3.10;2.90;;;;;;;;;;5034624;28;20225;-80
2022/07/30 10:49:28;;;;;;;3.25;2.83;;;;;;;;;;5052270;28;20307;-80
2022/07/30 10:51:55;;;;;;;2.83;2.63;;;;;;;;;;5053018;28;20292;-79
2022/07/30 10:54:44;;;;;;;3.05;2.85;;;;;;;;;;5053005;28;20273;-80
2022/07/30 10:57:14;;;;;;;3.33;3.05;;;;;;;;;;5051549;28;20216;-79
2022/07/30 11:00:12;;;;;;;3.65;3.35;;;;;;;;;;5052318;28;20224;-80
2022/07/30 11:02:41;;;;;;;2.65;2.45;;;;;;;;;;5052168;28;20650;-78
2022/07/30 11:05:27;;;;;;;4.93;3.50;;;;;;;;;;5052313;28;20237;-79
2022/07/30 11:07:55;;;;;;;3.13;2.83;;;;;;;;;;5053739;28;20201;-79
2022/07/30 11:10:37;;;;;;;3.20;3.00;;;;;;;;;;5056320;28;20232;-80
2022/07/30 11:13:06;;;;;;;2.70;2.50;;;;;;;;;;5056010;28;20237;-79
2022/07/30 11:15:55;;;;;;;2.38;2.20;;;;;;;;;;5056210;28;20241;-79
2022/07/30 11:18:25;;;;;;;2.35;2.15;;;;;;;;;;5056083;28;20212;-79
2022/07/30 11:21:16;;;;;;;3.38;2.70;;;;;;;;;;5055530;28;20304;-80
2022/07/30 11:23:45;;;;;;;2.95;2.50;;;;;;;;;;5055774;28;20241;-78
2022/07/30 11:26:51;;;;;;;2.65;2.42;;;;;;;;;;5055787;28;20214;-79
2022/07/30 11:29:41;;;;;;;4.90;2.58;;;;;;;;;;5055309;28;20297;-80
2022/07/30 11:32:29;;;;;;;3.20;2.80;;;;;;;;;;5055682;28;20259;-79
2022/07/30 11:35:21;;;;;;;2.65;2.45;;;;;;;;;;5055215;28;20237;-78
2022/07/30 11:38:05;;;;;;;3.60;2.80;;;;;;;;;;5049529;28;20205;-79
2022/07/30 11:40:35;;;;;;;4.28;3.40;;;;;;;;;;5055490;28;20240;-79
2022/07/30 11:43:19;;;;;;;3.58;3.28;;;;;;;;;;5055381;28;20296;-79
2022/07/30 11:45:47;;;;;;;3.08;2.85;;;;;;;;;;5054867;28;20284;-79
2022/07/30 11:48:18;;;;;;;2.55;2.40;;;;;;;;;;5055073;28;20197;-80
2022/07/30 11:50:47;;;;;;;2.40;2.20;;;;;;;;;;5054896;28;20229;-80
2022/07/30 11:53:18;;;;;;;1.80;1.70;;;;;;;;;;5054430;28;20290;-80
2022/07/30 11:55:50;;;;;;;1.80;1.70;;;;;;;;;;5055226;28;20236;-79
2022/07/30 11:58:27;;;;;;;1.90;1.80;;;;;;;;;;5054558;28;20206;-79
2022/07/30 12:00:59;;;;;;;3.25;2.95;;;;;;;;;;5054500;28;20230;-78
2022/07/30 12:03:30;;;;;;;3.50;3.20;;;;;;;;;;5054801;28;20205;-79
2022/07/30 12:06:04;;;;;;;2.53;2.33;;;;;;;;;;5054648;28;20221;-79
2022/07/30 12:08:41;;;;;;;3.45;3.10;;;;;;;;;;5054235;28;20204;-80
2022/07/30 12:11:08;;;;;;;5.53;3.70;;;;;;;;;;5054283;28;20290;-79
2022/07/30 12:13:36;;;;;;;2.58;2.38;;;;;;;;;;5054340;28;20322;-79
2022/07/30 12:16:09;;;;;;;5.10;4.15;;;;;;;;;;5053836;28;20209;-78
2022/07/30 12:18:37;;;;;;;3.22;3.03;;;;;;;;;;5053242;28;20292;-79
2022/07/30 12:21:08;;;;;;;3.25;2.95;;;;;;;;;;5054286;28;20253;-79
2022/07/30 12:23:36;;;;;;;4.40;3.20;;;;;;;;;;5054058;28;20223;-78
2022/07/30 12:26:05;;;;;;;3.90;3.42;;;;;;;;;;5053879;28;20301;-78
2022/07/30 12:28:34;;;;;;;2.63;2.42;;;;;;;;;;5053691;28;20288;-79
2022/07/30 12:31:03;;;;;;;3.15;2.42;;;;;;;;;;5104136;22;20252;-82
2022/07/30 12:33:31;;;;;;;3.15;2.88;;;;;;;;;;5060421;28;20217;-82
2022/07/30 12:36:00;;;;;;;3.13;2.78;;;;;;;;;;5060976;28;20244;-83
2022/07/30 12:38:29;;;;;;;2.85;2.20;;;;;;;;;;5060346;28;20204;-81
2022/07/30 12:40:59;;;;;;;2.67;2.47;;;;;;;;;;5060480;28;20208;-82
2022/07/30 12:43:48;;;;;;;2.80;2.60;;;;;;;;;;5088931;22;20257;-79
2022/07/30 12:46:19;;;;;;;2.38;2.20;;;;;;;;;;5073621;28;20244;-79
2022/07/30 12:48:52;;;;;;;3.40;2.47;;;;;;;;;;5074614;28;20605;-79
2022/07/30 12:51:20;;;;;;;2.22;2.10;;;;;;;;;;5058064;28;20229;-80
2022/07/30 12:53:49;;;;;;;2.35;2.20;;;;;;;;;;5054466;28;20652;-79
2022/07/30 12:56:21;;;;;;;2.42;2.22;;;;;;;;;;5052693;28;20293;-79
2022/07/30 12:58:49;;;;;;;3.25;2.67;;;;;;;;;;5053312;28;20234;-78
2022/07/30 13:01:16;;;;;;;2.53;2.33;;;;;;;;;;5053101;28;20309;-78
2022/07/30 13:03:44;;;;;;;3.22;2.88;;;;;;;;;;5044800;28;20233;-79
2022/07/30 13:06:15;;;;;;;4.15;2.78;;;;;;;;;;5053156;28;20213;-79
2022/07/30 13:08:52;;;;;;;2.85;2.65;;;;;;;;;;5053104;28;20233;-79
2022/07/30 13:11:21;;;;;;;3.45;3.10;;;;;;;;;;5051803;28;20802;-77
2022/07/30 13:13:51;;;;;;;3.03;2.65;;;;;;;;;;5051737;28;20201;-77
2022/07/30 13:16:19;;;;;;;3.53;3.22;;;;;;;;;;5051764;28;20549;-77
2022/07/30 13:18:47;;;;;;;2.60;2.40;;;;;;;;;;5051830;28;20288;-77
2022/07/30 13:21:15;;;;;;;2.65;2.45;;;;;;;;;;5051500;28;20301;-77
2022/07/30 13:23:43;;;;;;;3.13;2.90;;;;;;;;;;5051779;28;20208;-77
2022/07/30 13:26:12;;;;;;;2.92;2.70;;;;;;;;;;5051534;28;20763;-77
2022/07/30 13:28:39;;;;;;;3.25;2.70;;;;;;;;;;5051692;28;20267;-77
2022/07/30 13:31:07;;;;;;;2.60;2.40;;;;;;;;;;5050213;28;20304;-77
2022/07/30 13:33:35;;;;;;;2.90;2.70;;;;;;;;;;5050580;28;20205;-77
2022/07/30 13:36:03;;;;;;;2.45;2.25;;;;;;;;;;5051902;28;20800;-77
2022/07/30 13:38:31;;;;;;;3.38;2.40;;;;;;;;;;5051424;28;20292;-77
2022/07/30 13:40:59;;;;;;;2.33;2.13;;;;;;;;;;5051849;28;20304;-77
2022/07/30 13:43:27;;;;;;;4.82;3.75;;;;;;;;;;5052422;28;20205;-77
2022/07/30 13:45:55;;;;;;;2.50;2.30;;;;;;;;;;5051635;28;20676;-77
2022/07/30 13:48:23;;;;;;;2.65;2.45;;;;;;;;;;5051290;28;20206;-77
2022/07/30 13:50:50;;;;;;;1.83;1.73;;;;;;;;;;5051942;28;20313;-77
2022/07/30 13:53:18;;;;;;;2.58;2.35;;;;;;;;;;5051763;28;20305;-77
2022/07/30 13:55:45;;;;;;;2.47;1.95;;;;;;;;;;5051624;28;20233;-77
2022/07/30 13:58:13;;;;;;;2.70;2.50;;;;;;;;;;5050579;28;20292;-77
2022/07/30 14:00:43;;;;;;;2.50;2.30;;;;;;;;;;5051414;28;20221;-77
2022/07/30 14:03:12;;;;;;;2.03;1.92;;;;;;;;;;5051255;28;20240;-77
2022/07/30 14:05:40;;;;;;;1.70;1.60;;;;;;;;;;5050241;28;20296;-77
2022/07/30 14:08:08;;;;;;;2.47;2.28;;;;;;;;;;5052037;28;20208;-78
2022/07/30 14:10:36;;;;;;;2.38;2.13;;;;;;;;;;5051888;28;20304;-77
2022/07/30 14:13:05;;;;;;;3.10;2.65;;;;;;;;;;5052099;28;20225;-78
2022/07/30 14:15:33;;;;;;;1.90;1.80;;;;;;;;;;5051858;28;20236;-77
2022/07/30 14:18:03;;;;;;;2.38;2.17;;;;;;;;;;5051488;28;20288;-77
2022/07/30 14:20:30;;;;;;;2.35;1.88;;;;;;;;;;5051681;28;20256;-77
2022/07/30 14:22:58;;;;;;;1.98;1.88;;;;;;;;;;5051822;28;20284;-78
2022/07/30 14:25:25;;;;;;;1.98;1.88;;;;;;;;;;5051555;28;20233;-77
2022/07/30 14:27:53;;;;;;;1.77;1.67;;;;;;;;;;5051698;28;20300;-78
2022/07/30 14:30:20;;;;;;;1.90;1.80;;;;;;;;;;5051835;28;20253;-78
2022/07/30 14:32:48;;;;;;;1.70;1.60;;;;;;;;;;5052022;28;20324;-77
2022/07/30 14:35:17;;;;;;;2.22;2.08;;;;;;;;;;5051901;28;20655;-78
2022/07/30 14:37:44;;;;;;;2.75;2.17;;;;;;;;;;5051333;28;20202;-77
2022/07/30 14:40:13;;;;;;;2.95;2.25;;;;;;;;;;5051752;28;20308;-77
2022/07/30 14:42:41;;;;;;;1.80;1.70;;;;;;;;;;5054905;28;20242;-78
2022/07/30 14:45:10;;;;;;;2.58;2.38;;;;;;;;;;5055744;28;20760;-78
2022/07/30 14:47:38;;;;;;;2.50;2.30;;;;;;;;;;5055400;28;20241;-77
2022/07/30 14:50:08;;;;;;;2.38;2.20;;;;;;;;;;5055458;28;20300;-77
2022/07/30 14:52:37;;;;;;;2.60;2.40;;;;;;;;;;5055385;28;20316;-78
2022/07/30 14:55:07;;;;;;;2.63;2.42;;;;;;;;;;5055269;28;20669;-77
2022/07/30 14:57:34;;;;;;;2.72;1.98;;;;;;;;;;5054931;28;20229;-77
2022/07/30 15:00:02;;;;;;;2.47;2.28;;;;;;;;;;5055233;28;20226;-78